createdAt,value
2023-02-02T00:00:34.258Z,965.44
2023-02-02T00:01:34.237Z,965.44
2023-02-02T00:02:35.005Z,965.49
2023-02-02T00:03:34.225Z,965.51
2023-02-02T00:04:34.223Z,965.52
2023-02-02T00:05:34.172Z,965.58
2023-02-02T00:06:34.188Z,965.56
2023-02-02T00:07:34.156Z,965.58
2023-02-02T00:08:34.177Z,965.59
2023-02-02T00:09:34.124Z,965.59
2023-02-02T00:10:34.239Z,965.58
2023-02-02T00:11:34.136Z,965.63
2023-02-02T00:12:34.145Z,965.63
2023-02-02T00:13:34.113Z,965.63
2023-02-02T00:14:34.791Z,965.65
2023-02-02T00:15:34.062Z,965.62
2023-02-02T00:16:34.212Z,965.64
2023-02-02T00:17:34.472Z,965.70
2023-02-02T00:18:34.062Z,965.67
2023-02-02T00:19:34.029Z,965.65
2023-02-02T00:20:34.067Z,965.68
2023-02-02T00:21:33.995Z,965.70
2023-02-02T00:22:34.039Z,965.72
2023-02-02T00:23:34.035Z,965.73
2023-02-02T00:24:33.966Z,965.70
2023-02-02T00:25:34.000Z,965.75
2023-02-02T00:26:34.173Z,965.77
2023-02-02T00:27:33.921Z,965.73
2023-02-02T00:28:33.934Z,965.74
2023-02-02T00:29:33.939Z,965.74
2023-02-02T00:30:33.917Z,965.80
2023-02-02T00:31:34.072Z,965.79
2023-02-02T00:32:33.910Z,965.77
2023-02-02T00:33:33.903Z,965.86
2023-02-02T00:34:33.892Z,965.77
2023-02-02T00:35:33.883Z,965.81
2023-02-02T00:36:33.858Z,965.77
2023-02-02T00:37:33.885Z,965.80
2023-02-02T00:38:33.812Z,965.79
2023-02-02T00:39:33.867Z,965.86
2023-02-02T00:40:33.835Z,965.84
2023-02-02T00:41:33.827Z,965.82
2023-02-02T00:42:33.848Z,965.83
2023-02-02T00:43:33.762Z,965.82
2023-02-02T00:44:33.811Z,965.85
2023-02-02T00:45:33.836Z,965.88
2023-02-02T00:46:33.850Z,965.81
2023-02-02T00:47:33.752Z,965.83
2023-02-02T00:48:33.732Z,965.87
2023-02-02T00:49:33.750Z,965.87
2023-02-02T00:50:33.717Z,965.82
2023-02-02T00:51:33.726Z,965.87
2023-02-02T00:52:33.694Z,965.86
2023-02-02T00:53:33.725Z,965.88
2023-02-02T00:54:33.664Z,965.96
2023-02-02T00:55:33.647Z,965.92
2023-02-02T00:56:33.723Z,965.95
2023-02-02T00:57:33.641Z,965.97
2023-02-02T00:58:33.638Z,965.93
2023-02-02T00:59:33.608Z,965.97
2023-02-02T01:00:34.473Z,965.96
2023-02-02T01:01:33.609Z,965.99
2023-02-02T01:02:33.636Z,965.97
2023-02-02T01:03:33.555Z,966.08
2023-02-02T01:04:33.575Z,966.09
2023-02-02T01:05:33.658Z,966.05
2023-02-02T01:06:34.346Z,966.14
2023-02-02T01:07:33.513Z,966.08
2023-02-02T01:08:33.497Z,966.12
2023-02-02T01:09:33.540Z,966.10
2023-02-02T01:10:33.493Z,966.14
2023-02-02T01:11:33.479Z,966.19
2023-02-02T01:12:33.484Z,966.22
2023-02-02T01:13:33.484Z,966.17
2023-02-02T01:14:33.470Z,966.21
2023-02-02T01:15:33.432Z,966.21
2023-02-02T01:16:33.479Z,966.27
2023-02-02T01:17:33.428Z,966.26
2023-02-02T01:18:33.437Z,966.22
2023-02-02T01:19:33.397Z,966.31
2023-02-02T01:20:33.372Z,966.28
2023-02-02T01:21:33.420Z,966.29
2023-02-02T01:22:33.376Z,966.35
2023-02-02T01:23:33.386Z,966.31
2023-02-02T01:24:33.377Z,966.35
2023-02-02T01:25:33.315Z,966.35
2023-02-02T01:26:33.329Z,966.33
2023-02-02T01:27:33.329Z,966.36
2023-02-02T01:28:33.352Z,966.39
2023-02-02T01:29:33.290Z,966.42
2023-02-02T01:30:33.279Z,966.41
2023-02-02T01:31:33.314Z,966.44
2023-02-02T01:32:33.267Z,966.46
2023-02-02T01:33:33.273Z,966.49
2023-02-02T01:34:33.259Z,966.55
2023-02-02T01:35:33.259Z,966.55
2023-02-02T01:36:33.251Z,966.54
2023-02-02T01:37:33.222Z,966.59
2023-02-02T01:38:33.192Z,966.54
2023-02-02T01:39:34.347Z,966.53
2023-02-02T01:40:33.206Z,966.59
2023-02-02T01:41:33.175Z,966.55
2023-02-02T01:42:33.139Z,966.58
2023-02-02T01:43:33.146Z,966.54
2023-02-02T01:44:33.131Z,966.60
2023-02-02T01:45:33.174Z,966.62
2023-02-02T01:46:33.197Z,966.58
2023-02-02T01:47:33.104Z,966.55
2023-02-02T01:48:33.116Z,966.59
2023-02-02T01:49:33.072Z,966.57
2023-02-02T01:50:33.079Z,966.58
2023-02-02T01:51:33.060Z,966.62
2023-02-02T01:52:33.072Z,966.67
2023-02-02T01:53:33.070Z,966.64
2023-02-02T01:54:33.041Z,966.61
2023-02-02T01:55:33.021Z,966.67
2023-02-02T01:56:33.017Z,966.65
2023-02-02T01:57:33.109Z,966.59
2023-02-02T01:58:33.545Z,966.61
2023-02-02T01:59:32.988Z,966.58
2023-02-02T02:00:33.037Z,966.52
2023-02-02T02:01:33.034Z,966.58
2023-02-02T02:02:32.980Z,966.54
2023-02-02T02:03:32.935Z,966.59
2023-02-02T02:04:33.030Z,966.51
2023-02-02T02:05:32.899Z,966.51
2023-02-02T02:06:32.874Z,966.53
2023-02-02T02:07:32.891Z,966.57
2023-02-02T02:08:32.899Z,966.50
2023-02-02T02:09:32.854Z,966.54
2023-02-02T02:10:32.946Z,966.51
2023-02-02T02:11:32.832Z,966.57
2023-02-02T02:12:32.850Z,966.55
2023-02-02T02:13:32.814Z,966.58
2023-02-02T02:14:32.809Z,966.67
2023-02-02T02:15:32.836Z,966.71
2023-02-02T02:16:32.849Z,966.72
2023-02-02T02:17:32.770Z,966.71
2023-02-02T02:18:32.778Z,966.71
2023-02-02T02:19:32.795Z,966.74
2023-02-02T02:20:32.732Z,966.71
2023-02-02T02:21:32.822Z,966.76
2023-02-02T02:22:32.734Z,966.80
2023-02-02T02:23:32.714Z,966.75
2023-02-02T02:24:32.707Z,966.79
2023-02-02T02:25:32.720Z,966.85
2023-02-02T02:26:32.696Z,966.83
2023-02-02T02:27:32.763Z,966.82
2023-02-02T02:28:32.651Z,966.82
2023-02-02T02:29:32.650Z,966.86
2023-02-02T02:30:32.781Z,966.85
2023-02-02T02:31:32.849Z,966.84
2023-02-02T02:32:32.615Z,966.84
2023-02-02T02:33:32.632Z,966.85
2023-02-02T02:34:32.626Z,966.86
2023-02-02T02:35:32.583Z,966.86
2023-02-02T02:36:32.563Z,966.89
2023-02-02T02:37:32.622Z,966.92
2023-02-02T02:38:32.543Z,966.90
2023-02-02T02:39:32.541Z,966.85
2023-02-02T02:40:32.524Z,966.90
2023-02-02T02:41:32.535Z,966.92
2023-02-02T02:42:32.509Z,966.90
2023-02-02T02:43:32.524Z,966.91
2023-02-02T02:44:32.533Z,966.93
2023-02-02T02:45:32.474Z,966.93
2023-02-02T02:46:32.570Z,966.96
2023-02-02T02:47:32.442Z,966.91
2023-02-02T02:48:32.454Z,966.93
2023-02-02T02:49:32.438Z,966.96
2023-02-02T02:50:32.417Z,967.00
2023-02-02T02:51:32.397Z,966.95
2023-02-02T02:52:32.443Z,967.01
2023-02-02T02:53:32.419Z,966.99
2023-02-02T02:54:32.367Z,967.09
2023-02-02T02:55:32.377Z,967.01
2023-02-02T02:56:32.343Z,967.06
2023-02-02T02:57:32.351Z,967.13
2023-02-02T02:58:32.325Z,967.11
2023-02-02T02:59:32.349Z,967.13
2023-02-02T03:00:32.301Z,967.09
2023-02-02T03:01:32.320Z,967.15
2023-02-02T03:02:32.328Z,967.09
2023-02-02T03:03:32.283Z,967.10
2023-02-02T03:04:32.314Z,967.14
2023-02-02T03:05:32.251Z,967.12
2023-02-02T03:06:32.322Z,967.12
2023-02-02T03:07:32.232Z,967.09
2023-02-02T03:08:32.227Z,967.14
2023-02-02T03:09:32.198Z,967.12
2023-02-02T03:10:32.245Z,967.17
2023-02-02T03:11:32.206Z,967.17
2023-02-02T03:12:32.163Z,967.12
2023-02-02T03:13:32.176Z,967.21
2023-02-02T03:14:32.200Z,967.20
2023-02-02T03:15:32.207Z,967.22
2023-02-02T03:16:32.132Z,967.25
2023-02-02T03:17:32.132Z,967.28
2023-02-02T03:18:32.113Z,967.30
2023-02-02T03:19:32.106Z,967.34
2023-02-02T03:20:32.122Z,967.29
2023-02-02T03:21:32.083Z,967.33
2023-02-02T03:22:32.094Z,967.34
2023-02-02T03:23:32.064Z,967.30
2023-02-02T03:24:32.084Z,967.33
2023-02-02T03:25:32.060Z,967.37
2023-02-02T03:26:32.116Z,967.41
2023-02-02T03:27:32.013Z,967.42
2023-02-02T03:28:32.010Z,967.38
2023-02-02T03:29:32.001Z,967.40
2023-02-02T03:30:32.028Z,967.37
2023-02-02T03:31:32.080Z,967.30
2023-02-02T03:32:31.967Z,967.33
2023-02-02T03:33:31.989Z,967.42
2023-02-02T03:34:31.942Z,967.46
2023-02-02T03:35:31.996Z,967.40
2023-02-02T03:36:31.942Z,967.46
2023-02-02T03:37:31.973Z,967.41
2023-02-02T03:38:31.933Z,967.55
2023-02-02T03:39:31.939Z,967.52
2023-02-02T03:40:31.909Z,967.55
2023-02-02T03:41:31.881Z,967.58
2023-02-02T03:42:31.877Z,967.55
2023-02-02T03:43:31.931Z,967.57
2023-02-02T03:44:31.865Z,967.58
2023-02-02T03:45:31.825Z,967.58
2023-02-02T03:46:31.875Z,967.63
2023-02-02T03:47:31.798Z,967.60
2023-02-02T03:48:31.802Z,967.62
2023-02-02T03:49:31.808Z,967.64
2023-02-02T03:50:31.814Z,967.69
2023-02-02T03:51:31.776Z,967.68
2023-02-02T03:52:31.758Z,967.70
2023-02-02T03:53:31.746Z,967.78
2023-02-02T03:54:31.755Z,967.74
2023-02-02T03:55:31.760Z,967.72
2023-02-02T03:56:31.726Z,967.77
2023-02-02T03:57:31.694Z,967.75
2023-02-02T03:58:31.689Z,967.78
2023-02-02T03:59:31.711Z,967.79
2023-02-02T04:00:31.670Z,967.77
2023-02-02T04:01:31.668Z,967.80
2023-02-02T04:02:31.723Z,967.84
2023-02-02T04:03:31.655Z,967.90
2023-02-02T04:04:31.626Z,967.82
2023-02-02T04:05:31.632Z,967.82
2023-02-02T04:06:31.646Z,967.83
2023-02-02T04:07:31.669Z,967.87
2023-02-02T04:08:31.613Z,967.86
2023-02-02T04:09:31.615Z,967.89
2023-02-02T04:10:31.584Z,967.99
2023-02-02T04:11:31.577Z,967.94
2023-02-02T04:12:31.572Z,968.05
2023-02-02T04:13:31.554Z,968.05
2023-02-02T04:14:31.542Z,968.12
2023-02-02T04:15:31.526Z,968.09
2023-02-02T04:16:31.534Z,968.10
2023-02-02T04:17:31.510Z,968.09
2023-02-02T04:18:31.521Z,968.09
2023-02-02T04:19:31.497Z,968.13
2023-02-02T04:20:31.483Z,968.17
2023-02-02T04:21:31.452Z,968.19
2023-02-02T04:22:31.500Z,968.11
2023-02-02T04:23:31.467Z,968.15
2023-02-02T04:24:31.471Z,968.15
2023-02-02T04:25:31.441Z,968.20
2023-02-02T04:26:31.500Z,968.16
2023-02-02T04:27:31.427Z,968.20
2023-02-02T04:28:31.404Z,968.25
2023-02-02T04:29:31.374Z,968.23
2023-02-02T04:30:31.443Z,968.30
2023-02-02T04:31:31.401Z,968.26
2023-02-02T04:32:31.344Z,968.30
2023-02-02T04:33:31.330Z,968.32
2023-02-02T04:34:31.319Z,968.29
2023-02-02T04:35:31.309Z,968.27
2023-02-02T04:36:31.328Z,968.25
2023-02-02T04:37:31.317Z,968.24
2023-02-02T04:38:31.266Z,968.28
2023-02-02T04:39:31.287Z,968.30
2023-02-02T04:40:31.248Z,968.37
2023-02-02T04:41:31.235Z,968.35
2023-02-02T04:42:31.233Z,968.32
2023-02-02T04:43:31.247Z,968.37
2023-02-02T04:44:31.237Z,968.38
2023-02-02T04:45:31.217Z,968.34
2023-02-02T04:46:31.199Z,968.33
2023-02-02T04:47:31.204Z,968.39
2023-02-02T04:48:31.217Z,968.35
2023-02-02T04:49:31.161Z,968.39
2023-02-02T04:50:31.162Z,968.40
2023-02-02T04:51:31.143Z,968.35
2023-02-02T04:52:31.124Z,968.43
2023-02-02T04:53:31.159Z,968.40
2023-02-02T04:54:31.349Z,968.41
2023-02-02T04:55:31.108Z,968.43
2023-02-02T04:56:31.107Z,968.43
2023-02-02T04:57:31.086Z,968.44
2023-02-02T04:58:31.085Z,968.49
2023-02-02T04:59:31.133Z,968.49
2023-02-02T05:00:31.075Z,968.47
2023-02-02T05:01:31.071Z,968.54
2023-02-02T05:02:31.045Z,968.61
2023-02-02T05:03:31.029Z,968.58
2023-02-02T05:04:31.091Z,968.63
2023-02-02T05:05:31.033Z,968.65
2023-02-02T05:06:30.999Z,968.65
2023-02-02T05:07:31.058Z,968.60
2023-02-02T05:08:30.976Z,968.59
2023-02-02T05:09:30.973Z,968.64
2023-02-02T05:10:30.979Z,968.61
2023-02-02T05:11:30.967Z,968.59
2023-02-02T05:12:30.959Z,968.58
2023-02-02T05:13:30.913Z,968.58
2023-02-02T05:14:30.937Z,968.57
2023-02-02T05:15:30.898Z,968.61
2023-02-02T05:16:30.945Z,968.59
2023-02-02T05:17:30.856Z,968.57
2023-02-02T05:18:30.853Z,968.57
2023-02-02T05:19:30.873Z,968.61
2023-02-02T05:20:30.836Z,968.59
2023-02-02T05:21:30.852Z,968.63
2023-02-02T05:22:30.839Z,968.61
2023-02-02T05:23:30.818Z,968.64
2023-02-02T05:24:30.817Z,968.68
2023-02-02T05:25:30.783Z,968.66
2023-02-02T05:26:30.816Z,968.64
2023-02-02T05:27:30.762Z,968.74
2023-02-02T05:28:30.756Z,968.71
2023-02-02T05:29:30.753Z,968.72
2023-02-02T05:30:32.625Z,968.76
2023-02-02T05:31:30.770Z,968.73
2023-02-02T05:32:30.720Z,968.72
2023-02-02T05:33:30.713Z,968.73
2023-02-02T05:34:30.693Z,968.68
2023-02-02T05:35:30.703Z,968.72
2023-02-02T05:36:30.669Z,968.73
2023-02-02T05:37:30.716Z,968.76
2023-02-02T05:38:30.652Z,968.81
2023-02-02T05:39:30.643Z,968.89
2023-02-02T05:40:30.615Z,968.82
2023-02-02T05:41:30.607Z,968.86
2023-02-02T05:42:30.607Z,968.91
2023-02-02T05:43:30.671Z,968.86
2023-02-02T05:44:30.582Z,968.83
2023-02-02T05:45:30.578Z,968.86
2023-02-02T05:46:30.560Z,968.88
2023-02-02T05:47:30.575Z,968.94
2023-02-02T05:48:30.559Z,968.94
2023-02-02T05:49:30.557Z,968.97
2023-02-02T05:50:30.513Z,968.96
2023-02-02T05:51:30.531Z,968.97
2023-02-02T05:52:30.525Z,968.98
2023-02-02T05:53:31.125Z,968.95
2023-02-02T05:54:30.545Z,968.93
2023-02-02T05:55:30.487Z,968.96
2023-02-02T05:56:30.670Z,969.00
2023-02-02T05:57:30.488Z,969.08
2023-02-02T05:58:30.455Z,969.03
2023-02-02T05:59:30.423Z,969.04
2023-02-02T06:00:30.430Z,969.04
2023-02-02T06:01:30.481Z,969.07
2023-02-02T06:02:30.413Z,969.12
2023-02-02T06:03:30.561Z,969.15
2023-02-02T06:04:30.389Z,969.17
2023-02-02T06:05:30.398Z,969.15
2023-02-02T06:06:30.401Z,969.19
2023-02-02T06:07:30.384Z,969.27
2023-02-02T06:08:30.350Z,969.21
2023-02-02T06:09:30.327Z,969.27
2023-02-02T06:10:30.327Z,969.23
2023-02-02T06:11:30.298Z,969.20
2023-02-02T06:12:30.301Z,969.19
2023-02-02T06:13:30.292Z,969.20
2023-02-02T06:14:30.318Z,969.22
2023-02-02T06:15:30.371Z,969.11
2023-02-02T06:16:30.289Z,969.14
2023-02-02T06:17:30.262Z,969.13
2023-02-02T06:18:30.233Z,969.26
2023-02-02T06:19:30.223Z,969.24
2023-02-02T06:20:30.212Z,969.23
2023-02-02T06:21:30.305Z,969.28
2023-02-02T06:22:30.201Z,969.31
2023-02-02T06:23:30.206Z,969.25
2023-02-02T06:24:30.177Z,969.30
2023-02-02T06:25:30.170Z,969.31
2023-02-02T06:26:30.231Z,969.30
2023-02-02T06:27:30.154Z,969.25
2023-02-02T06:28:31.081Z,969.32
2023-02-02T06:29:30.107Z,969.35
2023-02-02T06:30:30.127Z,969.35
2023-02-02T06:31:30.244Z,969.36
2023-02-02T06:32:30.097Z,969.35
2023-02-02T06:33:30.096Z,969.28
2023-02-02T06:34:30.102Z,969.31
2023-02-02T06:35:30.068Z,969.30
2023-02-02T06:36:30.043Z,969.31
2023-02-02T06:37:30.821Z,969.38
2023-02-02T06:38:30.037Z,969.42
2023-02-02T06:39:30.056Z,969.45
2023-02-02T06:40:30.019Z,969.43
2023-02-02T06:41:29.992Z,969.42
2023-02-02T06:42:30.001Z,969.48
2023-02-02T06:43:29.982Z,969.42
2023-02-02T06:44:29.983Z,969.39
2023-02-02T06:45:29.960Z,969.42
2023-02-02T06:46:30.063Z,969.34
2023-02-02T06:47:29.924Z,969.37
2023-02-02T06:48:29.907Z,969.39
2023-02-02T06:49:29.922Z,969.43
2023-02-02T06:50:29.927Z,969.49
2023-02-02T06:51:29.903Z,969.48
2023-02-02T06:52:29.884Z,969.49
2023-02-02T06:53:29.883Z,969.53
2023-02-02T06:54:29.852Z,969.59
2023-02-02T06:55:29.878Z,969.53
2023-02-02T06:56:29.836Z,969.50
2023-02-02T06:57:29.815Z,969.50
2023-02-02T06:58:29.828Z,969.46
2023-02-02T06:59:29.805Z,969.51
2023-02-02T07:00:29.910Z,969.48
2023-02-02T07:01:29.831Z,969.54
2023-02-02T07:02:29.924Z,969.55
2023-02-02T07:03:29.768Z,969.54
2023-02-02T07:04:29.778Z,969.59
2023-02-02T07:05:30.892Z,969.63
2023-02-02T07:06:29.771Z,969.60
2023-02-02T07:07:29.744Z,969.62
2023-02-02T07:08:29.712Z,969.54
2023-02-02T07:09:29.689Z,969.62
2023-02-02T07:11:08.422Z,969.60
2023-02-02T07:11:29.703Z,969.63
2023-02-02T07:12:29.687Z,969.68
2023-02-02T07:13:29.670Z,969.64
2023-02-02T07:14:29.655Z,969.65
2023-02-02T07:15:29.635Z,969.66
2023-02-02T07:16:29.654Z,969.68
2023-02-02T07:17:29.658Z,969.69
2023-02-02T07:18:29.607Z,969.75
2023-02-02T07:19:29.609Z,969.72
2023-02-02T07:20:29.683Z,969.75
2023-02-02T07:21:29.569Z,969.76
2023-02-02T07:22:30.531Z,969.72
2023-02-02T07:23:29.592Z,969.71
2023-02-02T07:24:29.546Z,969.70
2023-02-02T07:25:29.551Z,969.71
2023-02-02T07:26:29.546Z,969.67
2023-02-02T07:27:29.509Z,969.69
2023-02-02T07:28:29.562Z,969.81
2023-02-02T07:29:29.495Z,969.75
2023-02-02T07:30:29.645Z,969.78
2023-02-02T07:31:29.558Z,969.81
2023-02-02T07:32:29.448Z,969.83
2023-02-02T07:33:29.474Z,969.83
2023-02-02T07:34:29.477Z,969.85
2023-02-02T07:35:29.419Z,969.87
2023-02-02T07:36:29.421Z,969.88
2023-02-02T07:37:29.437Z,969.84
2023-02-02T07:38:29.398Z,969.85
2023-02-02T07:39:29.417Z,969.94
2023-02-02T07:40:29.379Z,969.93
2023-02-02T07:41:29.385Z,969.95
2023-02-02T07:42:29.357Z,969.87
2023-02-02T07:43:29.358Z,969.87
2023-02-02T07:44:29.326Z,969.90
2023-02-02T07:45:30.055Z,969.84
2023-02-02T07:46:29.427Z,969.87
2023-02-02T07:47:29.323Z,969.89
2023-02-02T07:48:29.293Z,969.86
2023-02-02T07:49:29.282Z,969.92
2023-02-02T07:50:29.267Z,969.91
2023-02-02T07:51:29.241Z,969.91
2023-02-02T07:52:29.251Z,969.89
2023-02-02T07:53:29.424Z,969.92
2023-02-02T07:54:29.223Z,969.92
2023-02-02T07:55:29.571Z,969.97
2023-02-02T07:56:29.176Z,969.93
2023-02-02T07:57:29.191Z,969.95
2023-02-02T07:58:29.169Z,969.94
2023-02-02T07:59:31.950Z,969.98
2023-02-02T08:00:29.181Z,970.00
2023-02-02T08:01:29.214Z,970.05
2023-02-02T08:02:29.200Z,970.00
2023-02-02T08:03:29.134Z,970.00
2023-02-02T08:04:29.183Z,970.04
2023-02-02T08:05:29.126Z,970.00
2023-02-02T08:06:29.147Z,970.05
2023-02-02T08:07:29.071Z,970.09
2023-02-02T08:08:29.133Z,970.09
2023-02-02T08:09:29.074Z,970.10
2023-02-02T08:10:29.087Z,970.16
2023-02-02T08:11:29.035Z,970.13
2023-02-02T08:12:29.041Z,970.16
2023-02-02T08:13:29.029Z,970.22
2023-02-02T08:14:29.015Z,970.11
2023-02-02T08:15:28.994Z,970.15
2023-02-02T08:16:29.118Z,970.22
2023-02-02T08:17:28.983Z,970.25
2023-02-02T08:18:28.959Z,970.25
2023-02-02T08:19:28.944Z,970.32
2023-02-02T08:20:28.944Z,970.32
2023-02-02T08:21:28.971Z,970.29
2023-02-02T08:22:28.926Z,970.31
2023-02-02T08:23:28.954Z,970.25
2023-02-02T08:24:28.887Z,970.32
2023-02-02T08:25:28.888Z,970.30
2023-02-02T08:26:28.962Z,970.34
2023-02-02T08:27:28.874Z,970.28
2023-02-02T08:28:28.850Z,970.39
2023-02-02T08:29:28.831Z,970.40
2023-02-02T08:30:28.886Z,970.43
2023-02-02T08:31:28.892Z,970.49
2023-02-02T08:32:28.843Z,970.47
2023-02-02T08:33:28.803Z,970.48
2023-02-02T08:34:28.779Z,970.52
2023-02-02T08:35:28.813Z,970.46
2023-02-02T08:36:28.845Z,970.47
2023-02-02T08:37:28.769Z,970.50
2023-02-02T08:38:28.779Z,970.50
2023-02-02T08:39:28.781Z,970.55
2023-02-02T08:40:28.784Z,970.52
2023-02-02T08:41:28.755Z,970.53
2023-02-02T08:42:28.705Z,970.52
2023-02-02T08:43:28.701Z,970.58
2023-02-02T08:46:00.024Z,970.57
2023-02-02T08:46:08.471Z,970.58
2023-02-02T08:46:28.791Z,970.59
2023-02-02T08:47:28.664Z,970.62
2023-02-02T08:48:28.659Z,970.58
2023-02-02T08:49:28.649Z,970.65
2023-02-02T08:50:28.649Z,970.62
2023-02-02T08:51:28.636Z,970.58
2023-02-02T08:52:28.599Z,970.59
2023-02-02T08:53:28.649Z,970.60
2023-02-02T08:54:28.578Z,970.60
2023-02-02T08:55:28.849Z,970.68
2023-02-02T08:56:28.568Z,970.72
2023-02-02T08:57:28.569Z,970.68
2023-02-02T08:58:28.544Z,970.70
2023-02-02T08:59:29.299Z,970.73
2023-02-02T09:00:28.524Z,970.83
2023-02-02T09:01:28.598Z,970.80
2023-02-02T09:02:28.527Z,970.80
2023-02-02T09:03:28.489Z,970.81
2023-02-02T09:04:28.468Z,970.87
2023-02-02T09:05:28.512Z,970.88
2023-02-02T09:06:28.473Z,970.88
2023-02-02T09:07:28.446Z,970.89
2023-02-02T09:08:28.454Z,970.89
2023-02-02T09:09:28.451Z,970.85
2023-02-02T09:10:28.400Z,970.86
2023-02-02T09:11:28.458Z,970.94
2023-02-02T09:12:28.453Z,970.94
2023-02-02T09:13:28.411Z,970.89
2023-02-02T09:14:28.372Z,970.94
2023-02-02T09:15:28.388Z,970.93
2023-02-02T09:16:28.430Z,971.02
2023-02-02T09:17:28.387Z,971.02
2023-02-02T09:18:28.324Z,971.00
2023-02-02T09:19:28.350Z,971.08
2023-02-02T09:20:28.321Z,971.09
2023-02-02T09:21:28.300Z,971.06
2023-02-02T09:22:28.988Z,971.02
2023-02-02T09:23:28.274Z,971.05
2023-02-02T09:24:28.267Z,971.01
2023-02-02T09:25:28.262Z,971.00
2023-02-02T09:26:28.378Z,970.99
2023-02-02T09:27:28.247Z,970.98
2023-02-02T09:28:28.244Z,971.00
2023-02-02T09:29:28.222Z,970.97
2023-02-02T09:30:28.193Z,970.99
2023-02-02T09:31:28.346Z,970.99
2023-02-02T09:32:28.180Z,970.98
2023-02-02T09:33:28.334Z,970.96
2023-02-02T09:34:28.181Z,971.01
2023-02-02T09:35:28.145Z,971.01
2023-02-02T09:36:28.137Z,970.98
2023-02-02T09:37:28.129Z,970.98
2023-02-02T09:38:28.138Z,971.00
2023-02-02T09:39:28.107Z,971.00
2023-02-02T09:40:28.086Z,971.02
2023-02-02T09:41:28.093Z,971.04
2023-02-02T09:42:28.079Z,970.97
2023-02-02T09:43:28.111Z,971.00
2023-02-02T09:44:28.064Z,971.02
2023-02-02T09:45:28.273Z,970.98
2023-02-02T09:46:28.033Z,970.93
2023-02-02T09:47:28.004Z,970.98
2023-02-02T09:48:28.007Z,970.99
2023-02-02T09:49:28.010Z,970.98
2023-02-02T09:50:27.997Z,970.97
2023-02-02T09:51:28.109Z,970.98
2023-02-02T09:52:28.072Z,971.07
2023-02-02T09:53:27.941Z,971.02
2023-02-02T09:54:27.954Z,971.01
2023-02-02T09:55:28.825Z,971.00
2023-02-02T09:56:27.935Z,971.00
2023-02-02T09:57:27.937Z,971.01
2023-02-02T09:58:27.908Z,971.06
2023-02-02T09:59:27.908Z,971.09
2023-02-02T10:00:28.626Z,971.05
2023-02-02T10:01:28.106Z,971.08
2023-02-02T10:02:27.870Z,971.00
2023-02-02T10:03:27.917Z,971.01
2023-02-02T10:04:27.854Z,971.03
2023-02-02T10:05:29.179Z,971.08
2023-02-02T10:06:27.807Z,971.06
2023-02-02T10:07:27.831Z,971.06
2023-02-02T10:08:34.790Z,971.07
2023-02-02T10:09:27.810Z,971.10
2023-02-02T10:10:27.798Z,971.11
2023-02-02T10:11:27.764Z,971.11
2023-02-02T10:12:28.008Z,971.05
2023-02-02T10:13:27.819Z,971.12
2023-02-02T10:14:27.775Z,971.17
2023-02-02T10:15:28.047Z,971.13
2023-02-02T10:16:27.717Z,971.13
2023-02-02T10:17:27.714Z,971.12
2023-02-02T10:18:27.685Z,971.19
2023-02-02T10:19:27.713Z,971.26
2023-02-02T10:20:28.056Z,971.23
2023-02-02T10:21:27.660Z,971.22
2023-02-02T10:22:27.647Z,971.25
2023-02-02T10:23:28.271Z,971.21
2023-02-02T10:24:27.654Z,971.37
2023-02-02T10:25:27.673Z,971.36
2023-02-02T10:26:27.681Z,971.24
2023-02-02T10:27:27.595Z,971.27
2023-02-02T10:28:27.739Z,971.29
2023-02-02T10:29:30.845Z,971.32
2023-02-02T10:30:27.868Z,971.34
2023-02-02T10:31:27.877Z,971.33
2023-02-02T10:32:27.556Z,971.34
2023-02-02T10:33:27.529Z,971.35
2023-02-02T10:34:27.518Z,971.36
2023-02-02T10:35:27.600Z,971.35
2023-02-02T10:36:27.492Z,971.27
2023-02-02T10:37:27.557Z,971.28
2023-02-02T10:38:27.535Z,971.27
2023-02-02T10:39:27.561Z,971.29
2023-02-02T10:40:27.820Z,971.26
2023-02-02T10:41:27.448Z,971.32
2023-02-02T10:42:28.346Z,971.34
2023-02-02T10:43:27.414Z,971.29
2023-02-02T10:44:27.461Z,971.37
2023-02-02T10:45:27.392Z,971.33
2023-02-02T10:46:27.449Z,971.33
2023-02-02T10:47:27.469Z,971.38
2023-02-02T10:48:27.407Z,971.42
2023-02-02T10:49:27.352Z,971.38
2023-02-02T10:50:27.908Z,971.31
2023-02-02T10:51:27.375Z,971.39
2023-02-02T10:52:27.394Z,971.38
2023-02-02T10:53:27.336Z,971.32
2023-02-02T10:54:27.388Z,971.42
2023-02-02T10:55:27.852Z,971.38
2023-02-02T10:56:27.318Z,971.41
2023-02-02T10:57:27.281Z,971.37
2023-02-02T10:58:27.355Z,971.43
2023-02-02T10:59:27.305Z,971.49
2023-02-02T11:00:27.624Z,971.43
2023-02-02T11:01:27.266Z,971.47
2023-02-02T11:02:27.258Z,971.45
2023-02-02T11:03:27.192Z,971.40
2023-02-02T11:04:27.218Z,971.43
2023-02-02T11:05:27.185Z,971.40
2023-02-02T11:06:27.181Z,971.38
2023-02-02T11:07:27.155Z,971.35
2023-02-02T11:08:27.236Z,971.38
2023-02-02T11:09:27.599Z,971.40
2023-02-02T11:10:27.432Z,971.38
2023-02-02T11:11:27.180Z,971.35
2023-02-02T11:12:27.110Z,971.36
2023-02-02T11:13:27.096Z,971.43
2023-02-02T11:14:27.122Z,971.45
2023-02-02T11:15:27.101Z,971.42
2023-02-02T11:16:38.715Z,971.45
2023-02-02T11:17:27.112Z,971.50
2023-02-02T11:18:27.047Z,971.52
2023-02-02T11:19:27.162Z,971.54
2023-02-02T11:20:27.797Z,971.54
2023-02-02T11:21:27.884Z,971.45
2023-02-02T11:22:27.062Z,971.51
2023-02-02T11:23:27.799Z,971.53
2023-02-02T11:24:26.969Z,971.54
2023-02-02T11:25:26.957Z,971.48
2023-02-02T11:26:27.020Z,971.44
2023-02-02T11:27:26.967Z,971.50
2023-02-02T11:28:27.862Z,971.54
2023-02-02T11:29:26.925Z,971.53
2023-02-02T11:30:27.241Z,971.53
2023-02-02T11:31:27.025Z,971.56
2023-02-02T11:32:27.998Z,971.53
2023-02-02T11:33:28.415Z,971.56
2023-02-02T11:34:27.807Z,971.53
2023-02-02T11:35:26.877Z,971.52
2023-02-02T11:36:26.936Z,971.53
2023-02-02T11:37:26.848Z,971.52
2023-02-02T11:38:26.847Z,971.55
2023-02-02T11:39:26.821Z,971.56
2023-02-02T11:40:27.252Z,971.48
2023-02-02T11:41:26.789Z,971.52
2023-02-02T11:42:26.784Z,971.58
2023-02-02T11:43:26.789Z,971.48
2023-02-02T11:44:26.754Z,971.49
2023-02-02T11:45:26.790Z,971.51
2023-02-02T11:46:26.809Z,971.47
2023-02-02T11:47:26.756Z,971.54
2023-02-02T11:48:26.909Z,971.50
2023-02-02T11:49:26.725Z,971.52
2023-02-02T11:50:27.851Z,971.51
2023-02-02T11:51:26.843Z,971.53
2023-02-02T11:52:27.035Z,971.50
2023-02-02T11:53:26.704Z,971.50
2023-02-02T11:54:26.676Z,971.53
2023-02-02T11:55:26.744Z,971.49
2023-02-02T11:56:26.729Z,971.52
2023-02-02T11:57:26.615Z,971.56
2023-02-02T11:58:26.722Z,971.56
2023-02-02T11:59:26.576Z,971.56
2023-02-02T12:00:26.990Z,971.57
2023-02-02T12:01:26.612Z,971.62
2023-02-02T12:02:26.597Z,971.67
2023-02-02T12:03:26.577Z,971.67
2023-02-02T12:04:26.653Z,971.67
2023-02-02T12:05:26.536Z,971.66
2023-02-02T12:06:26.534Z,971.72
2023-02-02T12:07:26.555Z,971.69
2023-02-02T12:08:26.519Z,971.69
2023-02-02T12:09:26.509Z,971.72
2023-02-02T12:10:26.820Z,971.75
2023-02-02T12:11:26.492Z,971.72
2023-02-02T12:12:26.476Z,971.73
2023-02-02T12:13:26.475Z,971.72
2023-02-02T12:14:26.471Z,971.73
2023-02-02T12:15:27.695Z,971.70
2023-02-02T12:16:26.467Z,971.70
2023-02-02T12:17:26.438Z,971.71
2023-02-02T12:18:26.392Z,971.69
2023-02-02T12:19:26.440Z,971.74
2023-02-02T12:20:26.803Z,971.76
2023-02-02T12:21:26.352Z,971.74
2023-02-02T12:22:26.380Z,971.71
2023-02-02T12:23:26.330Z,971.78
2023-02-02T12:24:26.350Z,971.78
2023-02-02T12:25:26.954Z,971.81
2023-02-02T12:26:26.381Z,971.80
2023-02-02T12:27:26.281Z,971.85
2023-02-02T12:28:26.291Z,971.85